sensor_id;sensor_type;location;lat;lon;timestamp;P1;durP1;ratioP1;P2;durP2;ratioP2
52934;SDS011;38802;50.198;19.796;2022-08-04T00:00:10;9.70;;;8.60;;
52934;SDS011;38802;50.198;19.796;2022-08-04T00:08:45;9.90;;;8.40;;
52934;SDS011;38802;50.198;19.796;2022-08-04T00:11:29;10.10;;;9.10;;
52934;SDS011;38802;50.198;19.796;2022-08-04T00:13:57;10.70;;;9.70;;
52934;SDS011;38802;50.198;19.796;2022-08-04T00:16:30;8.90;;;8.10;;
52934;SDS011;38802;50.198;19.796;2022-08-04T00:21:55;9.50;;;8.60;;
52934;SDS011;38802;50.198;19.796;2022-08-04T00:24:27;9.00;;;8.10;;
52934;SDS011;38802;50.198;19.796;2022-08-04T00:26:56;9.10;;;8.40;;
52934;SDS011;38802;50.198;19.796;2022-08-04T00:29:23;9.60;;;8.70;;
52934;SDS011;38802;50.198;19.796;2022-08-04T00:31:50;9.50;;;8.70;;
52934;SDS011;38802;50.198;19.796;2022-08-04T00:34:23;9.40;;;8.40;;
52934;SDS011;38802;50.198;19.796;2022-08-04T00:36:52;8.40;;;7.80;;
52934;SDS011;38802;50.198;19.796;2022-08-04T00:39:20;10.30;;;8.10;;
52934;SDS011;38802;50.198;19.796;2022-08-04T01:09:56;9.00;;;7.50;;
52934;SDS011;38802;50.198;19.796;2022-08-04T01:20:30;8.60;;;7.50;;
52934;SDS011;38802;50.198;19.796;2022-08-04T01:34:18;8.80;;;8.10;;
52934;SDS011;38802;50.198;19.796;2022-08-04T01:36:58;8.80;;;8.00;;
52934;SDS011;38802;50.198;19.796;2022-08-04T01:39:34;9.40;;;8.50;;
52934;SDS011;38802;50.198;19.796;2022-08-04T01:42:07;8.30;;;7.60;;
52934;SDS011;38802;50.198;19.796;2022-08-04T01:44:36;9.30;;;8.40;;
52934;SDS011;38802;50.198;19.796;2022-08-04T01:47:05;8.30;;;7.60;;
52934;SDS011;38802;50.198;19.796;2022-08-04T01:49:34;7.90;;;7.20;;
52934;SDS011;38802;50.198;19.796;2022-08-04T01:52:07;9.20;;;8.40;;
52934;SDS011;38802;50.198;19.796;2022-08-04T01:54:40;10.20;;;7.90;;
52934;SDS011;38802;50.198;19.796;2022-08-04T01:57:10;8.20;;;7.40;;
52934;SDS011;38802;50.198;19.796;2022-08-04T01:59:57;9.70;;;7.50;;
52934;SDS011;38802;50.198;19.796;2022-08-04T02:02:25;8.30;;;7.70;;
52934;SDS011;38802;50.198;19.796;2022-08-04T02:04:52;7.90;;;7.10;;
52934;SDS011;38802;50.198;19.796;2022-08-04T02:07:23;8.00;;;7.40;;
52934;SDS011;38802;50.198;19.796;2022-08-04T02:12:55;9.80;;;7.70;;
52934;SDS011;38802;50.198;19.796;2022-08-04T02:20:45;7.70;;;7.00;;
52934;SDS011;38802;50.198;19.796;2022-08-04T02:23:35;9.60;;;7.40;;
52934;SDS011;38802;50.198;19.796;2022-08-04T02:26:03;8.90;;;7.40;;
52934;SDS011;38802;50.198;19.796;2022-08-04T02:28:36;8.10;;;7.40;;
52934;SDS011;38802;50.198;19.796;2022-08-04T02:33:42;7.60;;;7.00;;
52934;SDS011;38802;50.198;19.796;2022-08-04T02:36:13;7.50;;;6.80;;
52934;SDS011;38802;50.198;19.796;2022-08-04T02:38:54;7.50;;;6.90;;
52934;SDS011;38802;50.198;19.796;2022-08-04T02:41:31;7.60;;;6.90;;
52934;SDS011;38802;50.198;19.796;2022-08-04T02:44:01;8.60;;;6.70;;
52934;SDS011;38802;50.198;19.796;2022-08-04T02:46:31;7.50;;;6.90;;
52934;SDS011;38802;50.198;19.796;2022-08-04T02:49:00;7.40;;;6.70;;
52934;SDS011;38802;50.198;19.796;2022-08-04T02:51:31;8.00;;;7.10;;
52934;SDS011;38802;50.198;19.796;2022-08-04T02:54:00;7.50;;;6.90;;
52934;SDS011;38802;50.198;19.796;2022-08-04T02:56:30;7.90;;;7.10;;
52934;SDS011;38802;50.198;19.796;2022-08-04T02:59:06;7.80;;;7.10;;
52934;SDS011;38802;50.198;19.796;2022-08-04T03:01:35;8.50;;;7.00;;
52934;SDS011;38802;50.198;19.796;2022-08-04T03:04:24;7.70;;;7.10;;
52934;SDS011;38802;50.198;19.796;2022-08-04T03:12:25;7.40;;;6.90;;
52934;SDS011;38802;50.198;19.796;2022-08-04T03:23:38;7.90;;;6.80;;
52934;SDS011;38802;50.198;19.796;2022-08-04T04:00:45;7.40;;;6.80;;
52934;SDS011;38802;50.198;19.796;2022-08-04T04:08:52;7.40;;;6.50;;
52934;SDS011;38802;50.198;19.796;2022-08-04T04:20:00;8.80;;;6.60;;
52934;SDS011;38802;50.198;19.796;2022-08-04T04:25:41;7.50;;;6.90;;
52934;SDS011;38802;50.198;19.796;2022-08-04T04:28:37;6.80;;;6.20;;
52934;SDS011;38802;50.198;19.796;2022-08-04T04:37:35;7.00;;;5.90;;
52934;SDS011;38802;50.198;19.796;2022-08-04T04:48:23;6.00;;;5.60;;
52934;SDS011;38802;50.198;19.796;2022-08-04T04:50:55;7.80;;;5.70;;
52934;SDS011;38802;50.198;19.796;2022-08-04T04:53:35;6.00;;;5.40;;
52934;SDS011;38802;50.198;19.796;2022-08-04T04:58:38;7.80;;;5.10;;
52934;SDS011;38802;50.198;19.796;2022-08-04T05:15:11;4.80;;;4.20;;
52934;SDS011;38802;50.198;19.796;2022-08-04T05:17:40;4.70;;;4.20;;
52934;SDS011;38802;50.198;19.796;2022-08-04T05:20:21;4.50;;;4.20;;
52934;SDS011;38802;50.198;19.796;2022-08-04T05:23:01;3.80;;;3.50;;
52934;SDS011;38802;50.198;19.796;2022-08-04T05:25:42;4.50;;;4.00;;
52934;SDS011;38802;50.198;19.796;2022-08-04T05:28:31;6.20;;;4.30;;
52934;SDS011;38802;50.198;19.796;2022-08-04T05:31:20;3.80;;;3.60;;
52934;SDS011;38802;50.198;19.796;2022-08-04T05:33:53;5.70;;;3.80;;
52934;SDS011;38802;50.198;19.796;2022-08-04T05:36:25;4.00;;;3.70;;
52934;SDS011;38802;50.198;19.796;2022-08-04T05:39:20;4.70;;;4.20;;
52934;SDS011;38802;50.198;19.796;2022-08-04T05:41:51;3.90;;;3.40;;
52934;SDS011;38802;50.198;19.796;2022-08-04T05:44:24;5.70;;;4.10;;
52934;SDS011;38802;50.198;19.796;2022-08-04T05:46:57;5.70;;;3.80;;
52934;SDS011;38802;50.198;19.796;2022-08-04T05:49:25;3.30;;;3.00;;
52934;SDS011;38802;50.198;19.796;2022-08-04T05:51:54;3.10;;;2.90;;
52934;SDS011;38802;50.198;19.796;2022-08-04T05:54:24;4.80;;;3.30;;
52934;SDS011;38802;50.198;19.796;2022-08-04T05:56:53;3.30;;;3.00;;
52934;SDS011;38802;50.198;19.796;2022-08-04T05:59:21;4.00;;;3.10;;
52934;SDS011;38802;50.198;19.796;2022-08-04T06:01:52;5.20;;;2.90;;
52934;SDS011;38802;50.198;19.796;2022-08-04T06:04:26;7.50;;;3.10;;
52934;SDS011;38802;50.198;19.796;2022-08-04T06:06:56;4.10;;;3.40;;
52934;SDS011;38802;50.198;19.796;2022-08-04T06:09:23;3.50;;;3.20;;
52934;SDS011;38802;50.198;19.796;2022-08-04T06:11:50;4.80;;;3.40;;
52934;SDS011;38802;50.198;19.796;2022-08-04T06:14:49;3.60;;;3.10;;
52934;SDS011;38802;50.198;19.796;2022-08-04T06:17:23;7.00;;;3.60;;
52934;SDS011;38802;50.198;19.796;2022-08-04T06:20:14;3.70;;;3.20;;
52934;SDS011;38802;50.198;19.796;2022-08-04T06:22:51;6.50;;;3.10;;
52934;SDS011;38802;50.198;19.796;2022-08-04T06:25:24;3.60;;;2.80;;
52934;SDS011;38802;50.198;19.796;2022-08-04T06:27:55;3.70;;;3.30;;
52934;SDS011;38802;50.198;19.796;2022-08-04T06:30:25;4.00;;;3.50;;
52934;SDS011;38802;50.198;19.796;2022-08-04T06:32:54;5.60;;;3.00;;
52934;SDS011;38802;50.198;19.796;2022-08-04T06:35:30;5.50;;;3.70;;
52934;SDS011;38802;50.198;19.796;2022-08-04T06:37:59;4.40;;;4.00;;
52934;SDS011;38802;50.198;19.796;2022-08-04T06:40:28;4.50;;;3.40;;
52934;SDS011;38802;50.198;19.796;2022-08-04T06:43:01;3.50;;;3.20;;
52934;SDS011;38802;50.198;19.796;2022-08-04T06:45:30;3.70;;;3.30;;
52934;SDS011;38802;50.198;19.796;2022-08-04T06:48:01;5.20;;;3.10;;
52934;SDS011;38802;50.198;19.796;2022-08-04T06:50:33;2.90;;;2.50;;
52934;SDS011;38802;50.198;19.796;2022-08-04T06:53:22;3.60;;;2.40;;
52934;SDS011;38802;50.198;19.796;2022-08-04T06:55:51;3.50;;;2.80;;
52934;SDS011;38802;50.198;19.796;2022-08-04T06:58:19;2.90;;;2.60;;
52934;SDS011;38802;50.198;19.796;2022-08-04T07:00:48;4.50;;;3.30;;
52934;SDS011;38802;50.198;19.796;2022-08-04T07:03:17;2.80;;;2.60;;
52934;SDS011;38802;50.198;19.796;2022-08-04T07:05:46;3.40;;;3.10;;
52934;SDS011;38802;50.198;19.796;2022-08-04T07:08:14;2.90;;;2.70;;
52934;SDS011;38802;50.198;19.796;2022-08-04T07:10:42;5.10;;;3.10;;
52934;SDS011;38802;50.198;19.796;2022-08-04T07:13:10;4.00;;;3.00;;
52934;SDS011;38802;50.198;19.796;2022-08-04T07:15:40;4.50;;;3.30;;
52934;SDS011;38802;50.198;19.796;2022-08-04T07:18:10;3.80;;;3.10;;
52934;SDS011;38802;50.198;19.796;2022-08-04T07:20:43;2.40;;;2.30;;
52934;SDS011;38802;50.198;19.796;2022-08-04T07:23:11;4.30;;;3.00;;
52934;SDS011;38802;50.198;19.796;2022-08-04T07:25:43;3.20;;;2.60;;
52934;SDS011;38802;50.198;19.796;2022-08-04T07:28:36;4.60;;;3.20;;
52934;SDS011;38802;50.198;19.796;2022-08-04T07:31:05;2.70;;;2.50;;
52934;SDS011;38802;50.198;19.796;2022-08-04T07:33:36;3.10;;;2.80;;
52934;SDS011;38802;50.198;19.796;2022-08-04T07:36:04;4.00;;;3.00;;
52934;SDS011;38802;50.198;19.796;2022-08-04T07:38:38;2.90;;;2.60;;
52934;SDS011;38802;50.198;19.796;2022-08-04T07:41:21;4.50;;;2.50;;
52934;SDS011;38802;50.198;19.796;2022-08-04T07:44:05;2.50;;;2.30;;
52934;SDS011;38802;50.198;19.796;2022-08-04T07:46:37;3.80;;;3.10;;
52934;SDS011;38802;50.198;19.796;2022-08-04T07:49:04;3.00;;;2.60;;
52934;SDS011;38802;50.198;19.796;2022-08-04T07:51:33;2.50;;;2.30;;
52934;SDS011;38802;50.198;19.796;2022-08-04T07:54:03;6.50;;;2.50;;
52934;SDS011;38802;50.198;19.796;2022-08-04T07:56:40;4.20;;;2.30;;
52934;SDS011;38802;50.198;19.796;2022-08-04T07:59:11;7.00;;;2.10;;
52934;SDS011;38802;50.198;19.796;2022-08-04T08:01:37;6.40;;;2.20;;
52934;SDS011;38802;50.198;19.796;2022-08-04T08:04:06;6.10;;;2.40;;
52934;SDS011;38802;50.198;19.796;2022-08-04T08:06:34;3.20;;;2.30;;
52934;SDS011;38802;50.198;19.796;2022-08-04T08:09:15;6.30;;;3.00;;
52934;SDS011;38802;50.198;19.796;2022-08-04T08:11:44;6.70;;;2.60;;
52934;SDS011;38802;50.198;19.796;2022-08-04T08:14:33;2.40;;;2.10;;
52934;SDS011;38802;50.198;19.796;2022-08-04T08:17:02;4.20;;;2.30;;
52934;SDS011;38802;50.198;19.796;2022-08-04T08:19:31;3.30;;;2.70;;
52934;SDS011;38802;50.198;19.796;2022-08-04T08:22:00;6.10;;;2.60;;
52934;SDS011;38802;50.198;19.796;2022-08-04T08:24:29;2.90;;;2.20;;
52934;SDS011;38802;50.198;19.796;2022-08-04T08:26:57;3.00;;;2.60;;
52934;SDS011;38802;50.198;19.796;2022-08-04T08:29:25;4.40;;;2.40;;
52934;SDS011;38802;50.198;19.796;2022-08-04T08:31:54;6.80;;;2.40;;
52934;SDS011;38802;50.198;19.796;2022-08-04T08:34:29;7.70;;;2.00;;
52934;SDS011;38802;50.198;19.796;2022-08-04T08:37:02;3.00;;;2.00;;
52934;SDS011;38802;50.198;19.796;2022-08-04T08:39:37;4.90;;;2.50;;
52934;SDS011;38802;50.198;19.796;2022-08-04T09:09:42;4.00;;;2.30;;
52934;SDS011;38802;50.198;19.796;2022-08-04T09:12:24;2.40;;;2.20;;
52934;SDS011;38802;50.198;19.796;2022-08-04T09:14:54;2.80;;;2.50;;
52934;SDS011;38802;50.198;19.796;2022-08-04T09:17:49;2.60;;;2.10;;
52934;SDS011;38802;50.198;19.796;2022-08-04T09:23:27;4.00;;;2.40;;
52934;SDS011;38802;50.198;19.796;2022-08-04T09:26:00;2.90;;;2.00;;
52934;SDS011;38802;50.198;19.796;2022-08-04T09:31:30;6.50;;;2.00;;
52934;SDS011;38802;50.198;19.796;2022-08-04T09:34:26;4.30;;;2.50;;
52934;SDS011;38802;50.198;19.796;2022-08-04T09:46:07;3.40;;;2.50;;
52934;SDS011;38802;50.198;19.796;2022-08-04T10:00:03;3.90;;;2.60;;
52934;SDS011;38802;50.198;19.796;2022-08-04T10:02:40;5.80;;;3.20;;
52934;SDS011;38802;50.198;19.796;2022-08-04T10:05:15;3.50;;;2.70;;
52934;SDS011;38802;50.198;19.796;2022-08-04T10:13:41;5.10;;;2.90;;
52934;SDS011;38802;50.198;19.796;2022-08-04T10:21:58;4.90;;;2.60;;
52934;SDS011;38802;50.198;19.796;2022-08-04T10:28:28;4.90;;;2.40;;
52934;SDS011;38802;50.198;19.796;2022-08-04T10:31:02;4.70;;;2.30;;
52934;SDS011;38802;50.198;19.796;2022-08-04T10:36:08;3.40;;;2.10;;
52934;SDS011;38802;50.198;19.796;2022-08-04T10:38:41;2.80;;;2.60;;
52934;SDS011;38802;50.198;19.796;2022-08-04T10:41:12;16.30;;;2.80;;
52934;SDS011;38802;50.198;19.796;2022-08-04T10:43:43;2.40;;;2.20;;
52934;SDS011;38802;50.198;19.796;2022-08-04T10:46:34;10.00;;;2.90;;
52934;SDS011;38802;50.198;19.796;2022-08-04T10:49:06;5.10;;;2.50;;
52934;SDS011;38802;50.198;19.796;2022-08-04T10:51:43;3.40;;;2.40;;
52934;SDS011;38802;50.198;19.796;2022-08-04T10:56:59;2.80;;;2.60;;
52934;SDS011;38802;50.198;19.796;2022-08-04T10:59:33;3.60;;;3.00;;
52934;SDS011;38802;50.198;19.796;2022-08-04T11:02:17;4.10;;;2.40;;
52934;SDS011;38802;50.198;19.796;2022-08-04T11:04:58;4.30;;;2.60;;
52934;SDS011;38802;50.198;19.796;2022-08-04T11:07:31;2.90;;;2.00;;
52934;SDS011;38802;50.198;19.796;2022-08-04T11:10:00;3.50;;;2.70;;
52934;SDS011;38802;50.198;19.796;2022-08-04T11:12:27;5.50;;;2.80;;
52934;SDS011;38802;50.198;19.796;2022-08-04T11:15:00;4.80;;;2.70;;
52934;SDS011;38802;50.198;19.796;2022-08-04T11:17:35;6.50;;;2.50;;
52934;SDS011;38802;50.198;19.796;2022-08-04T11:23:05;4.50;;;2.40;;
52934;SDS011;38802;50.198;19.796;2022-08-04T11:25:40;3.00;;;2.60;;
52934;SDS011;38802;50.198;19.796;2022-08-04T11:31:33;2.90;;;2.50;;
52934;SDS011;38802;50.198;19.796;2022-08-04T11:42:51;4.60;;;2.30;;
52934;SDS011;38802;50.198;19.796;2022-08-04T11:45:26;2.80;;;2.60;;
52934;SDS011;38802;50.198;19.796;2022-08-04T11:48:16;2.70;;;2.50;;
52934;SDS011;38802;50.198;19.796;2022-08-04T11:50:53;3.30;;;2.50;;
52934;SDS011;38802;50.198;19.796;2022-08-04T11:53:22;5.90;;;2.90;;
52934;SDS011;38802;50.198;19.796;2022-08-04T11:56:02;5.10;;;3.10;;
52934;SDS011;38802;50.198;19.796;2022-08-04T11:58:37;4.00;;;2.40;;
52934;SDS011;38802;50.198;19.796;2022-08-04T12:01:22;6.50;;;2.60;;
52934;SDS011;38802;50.198;19.796;2022-08-04T12:04:15;2.10;;;2.00;;
52934;SDS011;38802;50.198;19.796;2022-08-04T12:06:57;3.00;;;2.80;;
52934;SDS011;38802;50.198;19.796;2022-08-04T12:09:55;2.10;;;2.00;;
52934;SDS011;38802;50.198;19.796;2022-08-04T12:15:07;7.50;;;2.50;;
52934;SDS011;38802;50.198;19.796;2022-08-04T12:17:58;2.50;;;2.30;;
52934;SDS011;38802;50.198;19.796;2022-08-04T12:20:48;2.50;;;2.30;;
52934;SDS011;38802;50.198;19.796;2022-08-04T12:23:35;2.30;;;2.20;;
52934;SDS011;38802;50.198;19.796;2022-08-04T12:26:06;2.30;;;2.10;;
52934;SDS011;38802;50.198;19.796;2022-08-04T12:28:39;2.30;;;2.20;;
52934;SDS011;38802;50.198;19.796;2022-08-04T12:31:37;2.40;;;2.20;;
52934;SDS011;38802;50.198;19.796;2022-08-04T12:37:12;2.50;;;2.30;;
52934;SDS011;38802;50.198;19.796;2022-08-04T12:40:02;4.40;;;2.40;;
52934;SDS011;38802;50.198;19.796;2022-08-04T12:45:26;5.80;;;2.50;;
52934;SDS011;38802;50.198;19.796;2022-08-04T12:47:56;2.90;;;2.70;;
52934;SDS011;38802;50.198;19.796;2022-08-04T12:50:25;3.20;;;2.20;;
52934;SDS011;38802;50.198;19.796;2022-08-04T12:52:56;2.20;;;2.00;;
52934;SDS011;38802;50.198;19.796;2022-08-04T12:55:29;2.90;;;1.80;;
52934;SDS011;38802;50.198;19.796;2022-08-04T12:58:10;4.30;;;2.20;;
52934;SDS011;38802;50.198;19.796;2022-08-04T13:00:42;3.50;;;2.00;;
52934;SDS011;38802;50.198;19.796;2022-08-04T13:03:13;2.70;;;2.40;;
52934;SDS011;38802;50.198;19.796;2022-08-04T13:05:42;3.60;;;2.10;;
52934;SDS011;38802;50.198;19.796;2022-08-04T13:08:12;2.60;;;2.00;;
52934;SDS011;38802;50.198;19.796;2022-08-04T13:10:44;9.40;;;2.20;;
52934;SDS011;38802;50.198;19.796;2022-08-04T13:13:19;3.80;;;2.60;;
52934;SDS011;38802;50.198;19.796;2022-08-04T13:15:53;5.00;;;2.00;;
52934;SDS011;38802;50.198;19.796;2022-08-04T13:18:25;4.10;;;2.50;;
52934;SDS011;38802;50.198;19.796;2022-08-04T13:21:06;6.30;;;2.30;;
52934;SDS011;38802;50.198;19.796;2022-08-04T13:23:49;2.20;;;2.00;;
52934;SDS011;38802;50.198;19.796;2022-08-04T13:26:54;6.40;;;2.30;;
52934;SDS011;38802;50.198;19.796;2022-08-04T13:29:34;3.90;;;2.20;;
52934;SDS011;38802;50.198;19.796;2022-08-04T13:32:24;2.40;;;2.10;;
52934;SDS011;38802;50.198;19.796;2022-08-04T13:34:52;3.70;;;2.20;;
52934;SDS011;38802;50.198;19.796;2022-08-04T13:37:23;4.10;;;1.90;;
52934;SDS011;38802;50.198;19.796;2022-08-04T13:39:53;6.30;;;2.20;;
52934;SDS011;38802;50.198;19.796;2022-08-04T13:42:23;4.40;;;2.20;;
52934;SDS011;38802;50.198;19.796;2022-08-04T13:44:59;2.40;;;2.00;;
52934;SDS011;38802;50.198;19.796;2022-08-04T13:47:28;6.20;;;2.00;;
52934;SDS011;38802;50.198;19.796;2022-08-04T13:52:53;2.50;;;2.30;;
52934;SDS011;38802;50.198;19.796;2022-08-04T13:57:49;3.10;;;2.30;;
52934;SDS011;38802;50.198;19.796;2022-08-04T14:00:21;2.00;;;1.90;;
52934;SDS011;38802;50.198;19.796;2022-08-04T14:03:01;4.60;;;2.40;;
52934;SDS011;38802;50.198;19.796;2022-08-04T14:08:47;3.80;;;2.30;;
52934;SDS011;38802;50.198;19.796;2022-08-04T14:11:18;2.20;;;2.00;;
52934;SDS011;38802;50.198;19.796;2022-08-04T14:17:02;2.00;;;1.90;;
52934;SDS011;38802;50.198;19.796;2022-08-04T14:27:39;4.50;;;2.20;;
52934;SDS011;38802;50.198;19.796;2022-08-04T14:35:58;2.00;;;1.90;;
52934;SDS011;38802;50.198;19.796;2022-08-04T14:38:40;3.50;;;2.00;;
52934;SDS011;38802;50.198;19.796;2022-08-04T14:41:07;2.00;;;1.90;;
52934;SDS011;38802;50.198;19.796;2022-08-04T14:46:34;2.70;;;2.50;;
52934;SDS011;38802;50.198;19.796;2022-08-04T14:49:15;2.50;;;2.30;;
52934;SDS011;38802;50.198;19.796;2022-08-04T14:51:50;5.00;;;2.00;;
52934;SDS011;38802;50.198;19.796;2022-08-04T14:54:24;2.40;;;1.90;;
52934;SDS011;38802;50.198;19.796;2022-08-04T14:56:54;2.50;;;2.30;;
52934;SDS011;38802;50.198;19.796;2022-08-04T14:59:23;4.40;;;2.10;;
52934;SDS011;38802;50.198;19.796;2022-08-04T15:01:51;2.10;;;2.00;;
52934;SDS011;38802;50.198;19.796;2022-08-04T15:04:27;3.60;;;2.00;;
52934;SDS011;38802;50.198;19.796;2022-08-04T15:06:57;3.20;;;1.90;;
52934;SDS011;38802;50.198;19.796;2022-08-04T15:09:25;3.10;;;1.80;;
52934;SDS011;38802;50.198;19.796;2022-08-04T15:11:53;7.00;;;2.70;;
52934;SDS011;38802;50.198;19.796;2022-08-04T15:14:21;2.10;;;1.90;;
52934;SDS011;38802;50.198;19.796;2022-08-04T15:17:05;2.30;;;2.00;;
52934;SDS011;38802;50.198;19.796;2022-08-04T15:19:52;2.00;;;1.80;;
52934;SDS011;38802;50.198;19.796;2022-08-04T15:22:22;3.70;;;1.80;;
52934;SDS011;38802;50.198;19.796;2022-08-04T15:24:49;4.30;;;1.70;;
52934;SDS011;38802;50.198;19.796;2022-08-04T15:27:23;4.10;;;1.90;;
52934;SDS011;38802;50.198;19.796;2022-08-04T15:29:54;2.60;;;1.80;;
52934;SDS011;38802;50.198;19.796;2022-08-04T15:32:32;2.20;;;2.00;;
52934;SDS011;38802;50.198;19.796;2022-08-04T15:35:07;2.20;;;2.00;;
52934;SDS011;38802;50.198;19.796;2022-08-04T15:43:07;2.10;;;1.60;;
52934;SDS011;38802;50.198;19.796;2022-08-04T15:45:46;8.90;;;2.10;;
52934;SDS011;38802;50.198;19.796;2022-08-04T15:48:35;4.60;;;2.00;;
52934;SDS011;38802;50.198;19.796;2022-08-04T15:51:05;5.80;;;2.30;;
52934;SDS011;38802;50.198;19.796;2022-08-04T15:58:56;2.30;;;1.60;;
52934;SDS011;38802;50.198;19.796;2022-08-04T16:01:24;2.30;;;2.20;;
52934;SDS011;38802;50.198;19.796;2022-08-04T16:03:52;3.90;;;1.80;;
52934;SDS011;38802;50.198;19.796;2022-08-04T16:08:56;6.30;;;2.40;;
52934;SDS011;38802;50.198;19.796;2022-08-04T16:16:27;3.10;;;1.80;;
52934;SDS011;38802;50.198;19.796;2022-08-04T16:27:02;3.10;;;2.40;;
52934;SDS011;38802;50.198;19.796;2022-08-04T16:29:35;3.10;;;2.40;;
52934;SDS011;38802;50.198;19.796;2022-08-04T16:32:10;2.30;;;2.10;;
52934;SDS011;38802;50.198;19.796;2022-08-04T16:34:38;4.30;;;1.90;;
52934;SDS011;38802;50.198;19.796;2022-08-04T16:37:22;4.20;;;2.20;;
52934;SDS011;38802;50.198;19.796;2022-08-04T16:40:22;4.10;;;2.10;;
52934;SDS011;38802;50.198;19.796;2022-08-04T16:48:07;6.50;;;2.70;;
52934;SDS011;38802;50.198;19.796;2022-08-04T16:50:49;3.20;;;1.90;;
52934;SDS011;38802;50.198;19.796;2022-08-04T16:53:21;7.10;;;2.70;;
52934;SDS011;38802;50.198;19.796;2022-08-04T16:56:13;2.60;;;2.00;;
52934;SDS011;38802;50.198;19.796;2022-08-04T16:58:44;3.50;;;2.30;;
52934;SDS011;38802;50.198;19.796;2022-08-04T17:01:20;1.70;;;1.50;;
52934;SDS011;38802;50.198;19.796;2022-08-04T17:04:00;7.30;;;1.80;;
52934;SDS011;38802;50.198;19.796;2022-08-04T17:06:36;3.10;;;1.80;;
52934;SDS011;38802;50.198;19.796;2022-08-04T17:09:08;6.10;;;2.40;;
52934;SDS011;38802;50.198;19.796;2022-08-04T17:11:39;2.80;;;2.00;;
52934;SDS011;38802;50.198;19.796;2022-08-04T17:14:11;6.60;;;2.80;;
52934;SDS011;38802;50.198;19.796;2022-08-04T17:16:41;8.00;;;2.50;;
52934;SDS011;38802;50.198;19.796;2022-08-04T17:19:09;7.30;;;2.30;;
52934;SDS011;38802;50.198;19.796;2022-08-04T17:21:51;4.60;;;2.00;;
52934;SDS011;38802;50.198;19.796;2022-08-04T17:24:35;2.60;;;2.40;;
52934;SDS011;38802;50.198;19.796;2022-08-04T17:27:05;3.00;;;2.20;;
52934;SDS011;38802;50.198;19.796;2022-08-04T17:30:30;4.80;;;2.10;;
52934;SDS011;38802;50.198;19.796;2022-08-04T17:32:56;1.90;;;1.70;;
52934;SDS011;38802;50.198;19.796;2022-08-04T17:35:23;2.50;;;1.70;;
52934;SDS011;38802;50.198;19.796;2022-08-04T17:38:04;2.70;;;1.90;;
52934;SDS011;38802;50.198;19.796;2022-08-04T17:40:31;8.20;;;2.10;;
52934;SDS011;38802;50.198;19.796;2022-08-04T17:43:04;10.80;;;2.60;;
52934;SDS011;38802;50.198;19.796;2022-08-04T17:48:40;6.10;;;2.60;;
52934;SDS011;38802;50.198;19.796;2022-08-04T17:51:11;4.70;;;2.30;;
52934;SDS011;38802;50.198;19.796;2022-08-04T17:53:43;6.00;;;2.60;;
52934;SDS011;38802;50.198;19.796;2022-08-04T17:56:32;12.60;;;2.60;;
52934;SDS011;38802;50.198;19.796;2022-08-04T17:59:39;2.60;;;2.20;;
52934;SDS011;38802;50.198;19.796;2022-08-04T18:02:25;11.00;;;2.50;;
52934;SDS011;38802;50.198;19.796;2022-08-04T18:05:02;9.10;;;2.80;;
52934;SDS011;38802;50.198;19.796;2022-08-04T18:07:38;10.70;;;2.80;;
52934;SDS011;38802;50.198;19.796;2022-08-04T18:10:38;8.10;;;3.10;;
52934;SDS011;38802;50.198;19.796;2022-08-04T18:13:23;5.80;;;2.10;;
52934;SDS011;38802;50.198;19.796;2022-08-04T18:16:01;2.50;;;2.30;;
52934;SDS011;38802;50.198;19.796;2022-08-04T18:18:29;4.20;;;2.50;;
52934;SDS011;38802;50.198;19.796;2022-08-04T18:20:56;12.20;;;2.60;;
52934;SDS011;38802;50.198;19.796;2022-08-04T18:23:29;7.80;;;2.60;;
52934;SDS011;38802;50.198;19.796;2022-08-04T18:25:58;3.50;;;2.50;;
52934;SDS011;38802;50.198;19.796;2022-08-04T18:28:28;2.60;;;2.20;;
52934;SDS011;38802;50.198;19.796;2022-08-04T18:30:59;3.10;;;2.80;;
52934;SDS011;38802;50.198;19.796;2022-08-04T18:33:27;3.20;;;3.00;;
52934;SDS011;38802;50.198;19.796;2022-08-04T18:36:07;7.30;;;3.40;;
52934;SDS011;38802;50.198;19.796;2022-08-04T18:39:00;5.70;;;3.50;;
52934;SDS011;38802;50.198;19.796;2022-08-04T18:41:42;6.20;;;3.20;;
52934;SDS011;38802;50.198;19.796;2022-08-04T18:44:29;5.10;;;2.80;;
52934;SDS011;38802;50.198;19.796;2022-08-04T18:46:57;7.00;;;2.80;;
52934;SDS011;38802;50.198;19.796;2022-08-04T18:49:45;4.00;;;3.00;;
52934;SDS011;38802;50.198;19.796;2022-08-04T18:52:32;3.00;;;2.60;;
52934;SDS011;38802;50.198;19.796;2022-08-04T18:54:59;6.40;;;3.90;;
52934;SDS011;38802;50.198;19.796;2022-08-04T18:57:28;10.00;;;4.20;;
52934;SDS011;38802;50.198;19.796;2022-08-04T19:00:16;8.00;;;3.50;;
52934;SDS011;38802;50.198;19.796;2022-08-04T19:02:46;4.90;;;3.10;;
52934;SDS011;38802;50.198;19.796;2022-08-04T19:05:13;6.90;;;3.40;;
52934;SDS011;38802;50.198;19.796;2022-08-04T19:08:00;3.80;;;3.20;;
52934;SDS011;38802;50.198;19.796;2022-08-04T19:10:46;3.60;;;3.10;;
52934;SDS011;38802;50.198;19.796;2022-08-04T19:13:20;4.70;;;3.70;;
52934;SDS011;38802;50.198;19.796;2022-08-04T19:15:52;4.30;;;3.80;;
52934;SDS011;38802;50.198;19.796;2022-08-04T19:18:20;7.60;;;3.50;;
52934;SDS011;38802;50.198;19.796;2022-08-04T19:20:48;5.50;;;4.30;;
52934;SDS011;38802;50.198;19.796;2022-08-04T19:23:17;5.10;;;3.30;;
52934;SDS011;38802;50.198;19.796;2022-08-04T19:26:03;5.50;;;3.20;;
52934;SDS011;38802;50.198;19.796;2022-08-04T19:28:44;6.60;;;2.90;;
52934;SDS011;38802;50.198;19.796;2022-08-04T19:31:13;4.90;;;3.20;;
52934;SDS011;38802;50.198;19.796;2022-08-04T19:33:47;7.50;;;3.20;;
52934;SDS011;38802;50.198;19.796;2022-08-04T19:36:34;4.30;;;3.40;;
52934;SDS011;38802;50.198;19.796;2022-08-04T19:39:03;6.30;;;2.70;;
52934;SDS011;38802;50.198;19.796;2022-08-04T19:41:37;3.10;;;2.60;;
52934;SDS011;38802;50.198;19.796;2022-08-04T19:44:24;4.30;;;2.70;;
52934;SDS011;38802;50.198;19.796;2022-08-04T19:46:56;5.90;;;2.60;;
52934;SDS011;38802;50.198;19.796;2022-08-04T19:49:28;4.10;;;3.30;;
52934;SDS011;38802;50.198;19.796;2022-08-04T19:52:15;3.20;;;2.80;;
52934;SDS011;38802;50.198;19.796;2022-08-04T19:55:01;4.20;;;2.60;;
52934;SDS011;38802;50.198;19.796;2022-08-04T19:57:39;4.00;;;2.70;;
52934;SDS011;38802;50.198;19.796;2022-08-04T20:00:15;5.30;;;3.00;;
52934;SDS011;38802;50.198;19.796;2022-08-04T20:03:04;3.40;;;2.70;;
52934;SDS011;38802;50.198;19.796;2022-08-04T20:05:41;4.20;;;2.50;;
52934;SDS011;38802;50.198;19.796;2022-08-04T20:08:22;4.30;;;3.10;;
52934;SDS011;38802;50.198;19.796;2022-08-04T20:10:51;4.60;;;2.70;;
52934;SDS011;38802;50.198;19.796;2022-08-04T20:13:21;6.90;;;2.90;;
52934;SDS011;38802;50.198;19.796;2022-08-04T20:15:56;8.40;;;2.90;;
52934;SDS011;38802;50.198;19.796;2022-08-04T20:18:25;9.00;;;2.60;;
52934;SDS011;38802;50.198;19.796;2022-08-04T20:21:13;8.30;;;2.60;;
52934;SDS011;38802;50.198;19.796;2022-08-04T20:23:50;6.40;;;2.80;;
52934;SDS011;38802;50.198;19.796;2022-08-04T20:26:18;4.70;;;2.60;;
52934;SDS011;38802;50.198;19.796;2022-08-04T20:28:46;3.40;;;2.90;;
52934;SDS011;38802;50.198;19.796;2022-08-04T20:31:18;2.80;;;2.60;;
52934;SDS011;38802;50.198;19.796;2022-08-04T20:33:45;3.20;;;2.50;;
52934;SDS011;38802;50.198;19.796;2022-08-04T20:36:19;5.40;;;2.70;;
52934;SDS011;38802;50.198;19.796;2022-08-04T20:38:46;3.70;;;2.90;;
52934;SDS011;38802;50.198;19.796;2022-08-04T20:41:19;6.20;;;3.00;;
52934;SDS011;38802;50.198;19.796;2022-08-04T20:43:46;4.40;;;3.60;;